Time;durP1;ratioP1;P1;durP2;ratioP2;P2;SDS_P1;SDS_P2;PMS_P1;PMS_P2;Temp;Humidity;BMP_temperature;BMP_pressure;BME280_temperature;BME280_humidity;BME280_pressure;Samples;Min_cycle;Max_cycle;Signal;HPM_P1;HPM_P2
2023/05/27 00:00:36;;;;;;;19.05;6.70;;;;;;;13.30;100.00;100582.28;5084720;28;20050;-77
2023/05/27 00:03:20;;;;;;;16.08;7.25;;;;;;;13.32;100.00;100582.09;5083694;28;20087;-77
2023/05/27 00:06:04;;;;;;;16.27;6.90;;;;;;;13.32;100.00;100576.81;5084182;28;20129;-76
2023/05/27 00:08:48;;;;;;;17.92;7.00;;;;;;;13.20;100.00;100564.03;5065185;28;20051;-77
2023/05/27 00:11:34;;;;;;;18.27;7.57;;;;;;;13.23;100.00;100574.25;5080977;28;20047;-77
2023/05/27 00:14:21;;;;;;;17.95;7.05;;;;;;;13.23;100.00;100578.69;5081354;28;20086;-77
2023/05/27 00:17:06;;;;;;;22.90;7.68;;;;;;;13.25;100.00;100574.88;5078669;28;20075;-76
2023/05/27 00:19:51;;;;;;;;;;;;;;;13.20;100.00;100581.66;5084137;28;20423;-76
2023/05/27 00:22:36;;;;;;;18.13;6.82;;;;;;;13.08;100.00;100571.53;5080950;28;19931;-75
2023/05/27 00:25:21;;;;;;;13.68;6.32;;;;;;;13.08;100.00;100570.69;5082630;28;20039;-76
2023/05/27 00:28:05;;;;;;;20.67;7.45;;;;;;;13.03;100.00;100573.03;5082480;28;20087;-76
2023/05/27 00:30:49;;;;;;;16.70;6.90;;;;;;;12.92;100.00;100567.16;5086328;28;20047;-76
2023/05/27 00:33:33;;;;;;;16.00;6.72;;;;;;;12.97;100.00;100575.38;5073498;28;20055;-76
2023/05/27 00:36:17;;;;;;;17.98;7.45;;;;;;;12.95;100.00;100568.63;5078325;28;20050;-76
2023/05/27 00:39:02;;;;;;;18.10;7.10;;;;;;;12.94;100.00;100566.97;5082925;28;20078;-76
2023/05/27 00:41:50;;;;;;;20.33;6.82;;;;;;;12.88;100.00;100571.13;5083645;28;20085;-74
2023/05/27 00:44:34;;;;;;;22.00;7.18;;;;;;;12.85;100.00;100567.00;5082041;28;20038;-75
2023/05/27 00:47:18;;;;;;;14.80;6.80;;;;;;;12.85;100.00;100555.66;5077974;28;20059;-75
2023/05/27 00:50:03;;;;;;;20.80;7.10;;;;;;;12.79;100.00;100548.44;5078832;28;20106;-75
2023/05/27 00:52:47;;;;;;;18.83;7.13;;;;;;;12.82;100.00;100545.47;5078362;28;20546;-75
2023/05/27 00:55:32;;;;;;;18.30;7.75;;;;;;;12.90;100.00;100545.41;5084653;28;20097;-75
2023/05/27 00:58:18;;;;;;;17.38;7.20;;;;;;;12.82;100.00;100548.09;5077291;28;20079;-76
2023/05/27 01:01:03;;;;;;;19.83;7.47;;;;;;;12.70;100.00;100535.28;5081366;28;20116;-76
2023/05/27 01:03:48;;;;;;;19.50;6.60;;;;;;;12.67;100.00;100542.72;5081994;28;20099;-76
2023/05/27 01:06:54;;;;;;;15.82;6.88;;;;;;;12.66;100.00;100536.63;5078898;28;20170;-77
2023/05/27 01:09:38;;;;;;;19.92;6.72;;;;;;;12.65;100.00;100535.00;5076276;28;20143;-76
2023/05/27 01:12:55;;;;;;;17.70;7.15;;;;;;;12.61;100.00;100531.06;5078412;28;20078;-76
2023/05/27 01:15:40;;;;;;;20.95;7.13;;;;;;;12.59;100.00;100525.16;5079825;28;20039;-76
2023/05/27 01:18:29;;;;;;;12.00;5.82;;;;;;;12.60;100.00;100524.16;5081562;28;20115;-76
2023/05/27 01:21:19;;;;;;;20.55;7.45;;;;;;;12.57;100.00;100527.94;5079321;28;20521;-77
2023/05/27 01:24:04;;;;;;;19.35;6.55;;;;;;;12.59;100.00;100519.88;5077898;28;20039;-77
2023/05/27 01:26:48;;;;;;;21.70;7.25;;;;;;;12.54;100.00;100514.28;5079234;28;20048;-76
2023/05/27 01:29:33;;;;;;;14.40;6.45;;;;;;;12.48;100.00;100507.91;5078529;28;20102;-77
2023/05/27 01:32:25;;;;;;;20.15;6.85;;;;;;;12.53;100.00;100510.84;5079364;28;20152;-76
2023/05/27 01:35:17;;;;;;;23.33;6.78;;;;;;;12.64;100.00;100511.44;5077747;28;20070;-77
2023/05/27 01:38:05;;;;;;;17.52;6.32;;;;;;;12.54;100.00;100495.84;5078733;28;20062;-77
2023/05/27 01:40:50;;;;;;;18.77;7.32;;;;;;;12.66;100.00;100497.13;5077375;28;20322;-75
2023/05/27 01:43:37;;;;;;;16.80;7.10;;;;;;;12.64;100.00;100501.75;5081993;28;20129;-77
2023/05/27 01:46:22;;;;;;;19.38;7.18;;;;;;;12.55;100.00;100494.84;5078700;28;20056;-75
2023/05/27 01:49:06;;;;;;;17.25;6.60;;;;;;;12.51;100.00;100485.66;5079176;28;20529;-76
2023/05/27 01:51:50;;;;;;;16.00;5.90;;;;;;;12.48;100.00;100488.66;5087301;28;20071;-77
2023/05/27 01:54:35;;;;;;;21.17;6.70;;;;;;;12.43;100.00;100484.72;5077211;28;20066;-77
2023/05/27 01:57:20;;;;;;;14.48;6.40;;;;;;;12.40;100.00;100485.06;5081223;28;20087;-74
2023/05/27 02:00:09;;;;;;;20.35;7.03;;;;;;;12.34;100.00;100485.72;5077443;28;20044;-77
2023/05/27 02:02:53;;;;;;;15.90;7.40;;;;;;;12.23;100.00;100473.75;5081654;28;20131;-77
2023/05/27 02:05:37;;;;;;;17.73;7.00;;;;;;;12.13;100.00;100481.84;5082036;28;20044;-77
2023/05/27 02:08:21;;;;;;;14.20;6.82;;;;;;;12.17;100.00;100469.16;5078332;28;20051;-76
2023/05/27 02:11:05;;;;;;;15.90;7.18;;;;;;;12.26;100.00;100481.31;5082834;28;20066;-74
2023/05/27 02:13:49;;;;;;;21.55;7.03;;;;;;;12.02;100.00;100476.97;5078171;28;20050;-77
2023/05/27 02:16:34;;;;;;;20.83;7.40;;;;;;;11.91;100.00;100474.63;5075340;28;20098;-75
2023/05/27 02:19:20;;;;;;;13.80;6.75;;;;;;;11.86;100.00;100473.34;5082080;28;20039;-77
2023/05/27 02:22:04;;;;;;;17.02;7.07;;;;;;;11.83;100.00;100473.66;5082899;28;20067;-76
2023/05/27 02:24:48;;;;;;;16.40;7.15;;;;;;;11.78;100.00;100465.44;5080827;28;20039;-76
2023/05/27 02:27:32;;;;;;;20.05;6.88;;;;;;;11.79;100.00;100461.84;5081602;28;20509;-76
2023/05/27 02:30:17;;;;;;;16.15;6.97;;;;;;;11.89;100.00;100466.09;5077266;28;20546;-76
2023/05/27 02:33:04;;;;;;;17.67;7.30;;;;;;;11.84;100.00;100454.25;5082546;28;20389;-77
2023/05/27 02:35:48;;;;;;;17.98;7.03;;;;;;;11.85;100.00;100458.53;5079878;28;20050;-76
2023/05/27 02:38:32;;;;;;;13.50;6.95;;;;;;;11.82;100.00;100463.31;5080001;28;20051;-76
2023/05/27 02:41:16;;;;;;;15.65;6.97;;;;;;;11.71;100.00;100448.69;5077340;28;20058;-77
2023/05/27 02:44:00;;;;;;;16.25;7.68;;;;;;;11.68;100.00;100451.66;5082610;28;20542;-77
2023/05/27 02:46:46;;;;;;;15.95;6.97;;;;;;;11.61;100.00;100448.06;5073510;28;20113;-76
2023/05/27 02:49:30;;;;;;;15.43;7.18;;;;;;;11.56;100.00;100427.50;5080808;28;20102;-76
2023/05/27 02:52:14;;;;;;;22.02;6.78;;;;;;;11.50;100.00;100436.88;5073967;28;20059;-76
2023/05/27 02:54:58;;;;;;;16.83;6.40;;;;;;;11.59;100.00;100440.31;5075673;28;20601;-77
2023/05/27 02:57:42;;;;;;;24.15;7.75;;;;;;;11.65;100.00;100441.47;5076485;28;20091;-77
2023/05/27 03:00:27;;;;;;;17.20;6.65;;;;;;;11.74;100.00;100442.28;5075794;28;20556;-76
2023/05/27 03:03:11;;;;;;;24.80;6.47;;;;;;;11.72;100.00;100439.81;5080125;28;20042;-76
2023/05/27 03:05:55;;;;;;;15.40;7.00;;;;;;;11.63;100.00;100427.69;5078674;28;20039;-77
2023/05/27 03:08:40;;;;;;;18.38;6.82;;;;;;;11.66;100.00;100436.03;5079205;28;20113;-77
2023/05/27 03:11:26;;;;;;;17.92;6.70;;;;;;;11.62;100.00;100436.56;5075416;28;20044;-76
2023/05/27 03:14:11;;;;;;;16.73;6.38;;;;;;;11.56;100.00;100424.88;5082137;28;20559;-77
2023/05/27 03:16:55;;;;;;;16.77;6.32;;;;;;;11.58;100.00;100434.22;5078170;28;20402;-76
2023/05/27 03:19:39;;;;;;;18.70;6.30;;;;;;;11.52;100.00;100421.75;5073333;28;20517;-76
2023/05/27 03:22:24;;;;;;;18.27;7.18;;;;;;;11.55;100.00;100429.31;5080154;28;22309;-76
2023/05/27 03:25:08;;;;;;;20.35;6.68;;;;;;;11.60;100.00;100428.00;5076986;28;20128;-76
2023/05/27 03:27:53;;;;;;;15.98;6.95;;;;;;;11.53;100.00;100426.03;5078934;28;20070;-76
2023/05/27 03:30:38;;;;;;;16.30;6.50;;;;;;;11.48;100.00;100420.47;5075365;28;20460;-77
2023/05/27 03:33:23;;;;;;;21.88;6.63;;;;;;;11.45;100.00;100428.69;5075585;28;20097;-76
2023/05/27 03:36:07;;;;;;;15.98;6.35;;;;;;;11.48;100.00;100420.47;5075986;28;20043;-76
2023/05/27 03:38:51;;;;;;;17.23;5.78;;;;;;;11.47;100.00;100416.19;5077186;28;20089;-77
2023/05/27 03:41:35;;;;;;;16.77;6.53;;;;;;;11.43;100.00;100414.88;5073757;28;20082;-76
2023/05/27 03:44:19;;;;;;;14.50;6.32;;;;;;;11.35;100.00;100401.72;5080168;28;20043;-76
2023/05/27 03:47:04;;;;;;;21.35;6.65;;;;;;;11.38;100.00;100406.66;5076521;28;20123;-76
2023/05/27 03:49:50;;;;;;;13.80;6.32;;;;;;;11.49;100.00;100405.47;5077912;28;20101;-76
2023/05/27 03:52:34;;;;;;;12.15;6.28;;;;;;;11.64;100.00;100395.94;5084134;28;20104;-77
2023/05/27 03:55:20;;;;;;;19.35;5.90;;;;;;;11.83;100.00;100410.53;5081633;28;20059;-76
2023/05/27 03:58:04;;;;;;;20.63;6.30;;;;;;;11.83;100.00;100397.38;5085328;28;20055;-77
2023/05/27 04:00:48;;;;;;;19.30;6.35;;;;;;;11.80;99.53;100389.00;5082322;28;20063;-77
2023/05/27 04:03:33;;;;;;;23.95;6.90;;;;;;;11.84;99.22;100396.38;5084311;28;20059;-76
2023/05/27 04:06:17;;;;;;;18.77;6.78;;;;;;;11.85;99.80;100402.44;5082420;28;20055;-77
2023/05/27 04:09:03;;;;;;;16.58;6.53;;;;;;;11.87;99.45;100400.47;5082933;28;20046;-78
2023/05/27 04:11:47;;;;;;;17.42;6.53;;;;;;;11.88;99.32;100396.03;5081582;28;20047;-77
2023/05/27 04:14:31;;;;;;;14.00;6.05;;;;;;;11.88;99.11;100402.09;5084163;28;20437;-78
2023/05/27 04:17:15;;;;;;;15.65;5.88;;;;;;;12.03;98.49;100393.53;5086317;28;20046;-77
2023/05/27 04:20:00;;;;;;;20.02;6.75;;;;;;;12.12;97.77;100392.53;5079466;28;20035;-76
2023/05/27 04:22:44;;;;;;;13.18;6.10;;;;;;;12.19;97.26;100385.59;5082749;28;20051;-76
2023/05/27 04:25:29;;;;;;;22.02;6.20;;;;;;;12.29;96.27;100385.38;5081675;28;20047;-76
2023/05/27 04:28:13;;;;;;;16.83;6.20;;;;;;;12.34;95.51;100390.13;5077443;28;20075;-78
2023/05/27 04:30:57;;;;;;;17.52;6.30;;;;;;;12.41;95.06;100391.91;5080168;28;20477;-78
2023/05/27 04:33:44;;;;;;;16.15;7.25;;;;;;;12.50;93.96;100373.41;5081984;28;20433;-75
2023/05/27 04:36:32;;;;;;;16.70;5.93;;;;;;;12.74;92.40;100379.50;5080815;28;20128;-76
2023/05/27 04:39:17;;;;;;;13.77;6.07;;;;;;;12.87;91.92;100377.09;5082539;28;20107;-77
2023/05/27 04:42:01;;;;;;;20.60;6.07;;;;;;;12.95;90.84;100387.56;5077675;28;20536;-76
2023/05/27 04:44:48;;;;;;;14.13;5.60;;;;;;;12.93;90.46;100375.59;5082862;28;20098;-76
2023/05/27 04:47:36;;;;;;;13.95;5.90;;;;;;;13.20;90.33;100389.19;5082863;28;20050;-76
2023/05/27 04:50:23;;;;;;;13.90;6.35;;;;;;;13.22;90.45;100377.50;5080944;28;20035;-74
2023/05/27 04:53:08;;;;;;;17.67;6.05;;;;;;;13.19;90.57;100396.31;5077093;28;20050;-74
2023/05/27 04:55:52;;;;;;;19.92;6.60;;;;;;;13.08;90.75;100381.72;5079329;28;20046;-77
2023/05/27 04:58:36;;;;;;;20.35;6.43;;;;;;;13.10;90.73;100376.25;5080275;28;20109;-76
2023/05/27 05:01:22;;;;;;;12.38;6.18;;;;;;;13.18;91.25;100386.75;5076224;28;20454;-76
2023/05/27 05:04:12;;;;;;;16.92;6.82;;;;;;;13.21;91.50;100393.47;5080501;28;20062;-74
2023/05/27 05:06:56;;;;;;;16.10;6.05;;;;;;;13.28;92.22;100403.13;5078935;28;20073;-77
2023/05/27 05:09:40;;;;;;;16.65;5.80;;;;;;;13.33;91.28;100404.41;5080928;28;20067;-76
2023/05/27 05:12:28;;;;;;;16.40;6.93;;;;;;;13.36;91.92;100398.78;5082199;28;20055;-77
2023/05/27 05:15:12;;;;;;;21.52;6.40;;;;;;;13.44;91.95;100401.38;5080947;28;20048;-77
2023/05/27 05:17:56;;;;;;;11.45;6.30;;;;;;;13.46;90.28;100404.66;5074496;28;20090;-76
2023/05/27 05:20:40;;;;;;;21.33;5.95;;;;;;;13.59;90.02;100398.75;5085522;28;20465;-77
2023/05/27 05:23:24;;;;;;;23.48;6.57;;;;;;;13.71;88.97;100407.03;5077438;28;20143;-76
2023/05/27 05:26:09;;;;;;;18.90;6.25;;;;;;;13.73;87.42;100388.41;5074108;28;20043;-77
2023/05/27 05:28:53;;;;;;;17.33;6.63;;;;;;;13.97;86.41;100397.84;5082259;28;20047;-77
2023/05/27 05:31:37;;;;;;;16.45;5.60;;;;;;;14.00;86.11;100397.50;5079047;28;20176;-77
2023/05/27 05:34:21;;;;;;;18.95;6.53;;;;;;;14.08;85.57;100389.47;5082784;28;20074;-76
2023/05/27 05:37:05;;;;;;;17.77;5.57;;;;;;;14.23;85.68;100394.72;5081849;28;20417;-77
2023/05/27 05:39:48;;;;;;;14.93;5.50;;;;;;;14.19;85.78;100392.66;5083057;28;20459;-77
2023/05/27 05:42:33;;;;;;;10.75;5.53;;;;;;;14.36;84.84;100399.34;5076551;28;20398;-78
2023/05/27 05:45:16;;;;;;;19.13;5.72;;;;;;;14.43;84.58;100404.69;5076288;28;20429;-77
2023/05/27 05:48:00;;;;;;;15.40;5.78;;;;;;;14.57;84.38;100400.38;5082418;28;20075;-76
2023/05/27 05:50:45;;;;;;;14.75;5.90;;;;;;;14.59;83.67;100403.66;5080943;28;20386;-77
2023/05/27 05:53:29;;;;;;;12.20;5.55;;;;;;;14.56;83.64;100388.19;5079035;28;20051;-78
2023/05/27 05:56:12;;;;;;;;;;;;;;;14.67;82.35;100397.44;5072811;28;20170;-75
2023/05/27 05:58:56;;;;;;;13.65;6.28;;;;;;;14.84;82.76;100390.94;5083675;28;20045;-74
2023/05/27 06:01:40;;;;;;;18.70;5.80;;;;;;;14.84;82.33;100382.16;5078132;28;20448;-77
2023/05/27 06:04:24;;;;;;;15.57;5.88;;;;;;;15.02;83.62;100380.91;5074613;28;20040;-76
2023/05/27 06:07:08;;;;;;;15.65;6.05;;;;;;;15.11;84.60;100390.31;5078296;28;20402;-76
2023/05/27 06:09:53;;;;;;;17.17;5.10;;;;;;;15.20;83.07;100383.91;5081084;28;20493;-77
2023/05/27 06:12:37;;;;;;;14.10;6.03;;;;;;;15.17;82.15;100378.16;5077850;28;20043;-76
2023/05/27 06:15:21;;;;;;;21.13;5.97;;;;;;;15.21;85.96;100380.25;5075780;28;20564;-76
2023/05/27 06:18:05;;;;;;;16.25;5.90;;;;;;;15.36;83.50;100376.69;5076000;28;20535;-77
2023/05/27 06:20:49;;;;;;;13.93;4.80;;;;;;;15.50;82.97;100378.38;5068619;28;20536;-76
2023/05/27 06:23:33;;;;;;;14.10;5.05;;;;;;;15.55;81.04;100377.81;5080406;28;20105;-77
2023/05/27 06:26:17;;;;;;;11.73;5.65;;;;;;;15.60;81.11;100377.25;5073038;28;20043;-76
2023/05/27 06:29:01;;;;;;;12.73;5.28;;;;;;;15.51;80.97;100379.22;5073425;28;20059;-76
2023/05/27 06:31:48;;;;;;;13.57;4.85;;;;;;;15.60;79.89;100370.09;5078201;28;20044;-78
2023/05/27 06:34:31;;;;;;;13.77;4.70;;;;;;;15.75;78.87;100380.59;5080965;28;20058;-79
2023/05/27 06:37:16;;;;;;;13.68;5.05;;;;;;;15.82;79.84;100378.78;5082385;28;20158;-79
2023/05/27 06:40:00;;;;;;;20.90;5.30;;;;;;;15.83;80.72;100367.19;5075789;28;20135;-78
2023/05/27 06:42:44;;;;;;;13.77;5.13;;;;;;;15.90;79.69;100377.00;5078661;28;20043;-77
2023/05/27 06:45:28;;;;;;;15.93;5.72;;;;;;;15.92;77.90;100359.13;5079627;28;20564;-78
2023/05/27 06:48:12;;;;;;;16.52;5.13;;;;;;;16.01;77.75;100373.81;5081432;28;20106;-77
2023/05/27 06:50:56;;;;;;;16.63;5.32;;;;;;;16.19;78.87;100375.09;5080048;28;20046;-77
2023/05/27 06:53:40;;;;;;;19.70;5.93;;;;;;;16.23;79.97;100371.03;5076539;28;20512;-80
2023/05/27 06:56:25;;;;;;;13.77;5.07;;;;;;;16.25;79.32;100363.69;5072671;28;20529;-80
2023/05/27 06:59:09;;;;;;;15.50;5.15;;;;;;;16.34;79.30;100364.34;5078546;28;20063;-79
2023/05/27 07:01:53;;;;;;;10.27;4.88;;;;;;;16.49;78.82;100362.34;5075917;28;20452;-79
2023/05/27 07:04:38;;;;;;;15.57;4.93;;;;;;;16.63;77.40;100363.16;5079250;28;20571;-77
2023/05/27 07:07:22;;;;;;;12.20;4.93;;;;;;;16.70;77.18;100361.38;5079843;28;20524;-78
2023/05/27 07:10:06;;;;;;;15.18;5.75;;;;;;;16.75;76.37;100357.28;5073160;28;20121;-78
2023/05/27 07:12:50;;;;;;;11.75;5.82;;;;;;;16.83;77.10;100360.56;5072310;28;20052;-77
2023/05/27 07:15:35;;;;;;;17.15;5.32;;;;;;;16.77;77.12;100355.25;5078732;28;20042;-77
2023/05/27 07:18:18;;;;;;;15.65;6.38;;;;;;;16.87;79.62;100358.28;5072527;28;20048;-76
2023/05/27 07:21:03;;;;;;;19.60;5.25;;;;;;;16.96;79.04;100353.59;5079214;28;20043;-76
2023/05/27 07:23:46;;;;;;;12.98;6.10;;;;;;;16.97;80.16;100353.41;5076212;28;20531;-77
2023/05/27 07:26:31;;;;;;;13.50;5.25;;;;;;;17.15;79.46;100351.19;5088839;28;20579;-79
2023/05/27 07:29:15;;;;;;;16.52;6.03;;;;;;;17.05;78.55;100354.25;5091222;28;20432;-77
2023/05/27 07:31:59;;;;;;;15.65;5.97;;;;;;;17.12;78.89;100357.72;5085708;28;20096;-80
2023/05/27 07:34:43;;;;;;;14.90;5.88;;;;;;;17.06;79.71;100351.41;5086837;28;20388;-83
2023/05/27 07:37:28;;;;;;;15.75;6.30;;;;;;;17.12;78.89;100339.16;5088383;28;20069;-80
2023/05/27 07:40:12;;;;;;;12.55;5.07;;;;;;;17.15;79.99;100337.91;5080698;28;20074;-80
2023/05/27 07:42:56;;;;;;;11.73;5.30;;;;;;;17.17;80.38;100338.53;5087072;28;20102;-79
2023/05/27 07:45:40;;;;;;;19.48;6.18;;;;;;;17.25;79.33;100343.63;5085042;28;20042;-76
2023/05/27 07:48:24;;;;;;;14.20;5.60;;;;;;;17.12;79.15;100342.63;5079433;28;20067;-80
2023/05/27 07:51:08;;;;;;;16.33;6.20;;;;;;;17.13;76.69;100341.59;5077589;28;20051;-81
2023/05/27 07:53:52;;;;;;;17.10;5.65;;;;;;;17.12;78.21;100333.84;5076914;28;20169;-83
2023/05/27 07:56:36;;;;;;;14.18;5.63;;;;;;;17.16;78.42;100327.09;5083490;28;20078;-82
2023/05/27 07:59:20;;;;;;;15.63;6.05;;;;;;;17.18;80.78;100324.22;5082202;28;20652;-82
2023/05/27 08:02:05;;;;;;;15.38;5.70;;;;;;;17.19;81.72;100321.38;5083936;28;20120;-82
2023/05/27 08:04:49;;;;;;;13.23;5.75;;;;;;;17.18;81.80;100327.72;5082715;28;20081;-82
2023/05/27 08:07:34;;;;;;;13.65;6.65;;;;;;;17.31;81.16;100320.75;5086115;28;20122;-81
2023/05/27 08:10:18;;;;;;;14.63;6.03;;;;;;;17.28;80.53;100317.47;5083849;28;20075;-83
2023/05/27 08:13:01;;;;;;;19.08;5.97;;;;;;;17.33;80.26;100311.56;5086157;28;20087;-82
2023/05/27 08:15:46;;;;;;;14.82;6.15;;;;;;;17.54;80.98;100305.19;5081616;28;20046;-82
2023/05/27 08:18:30;;;;;;;13.65;5.68;;;;;;;17.62;80.08;100311.28;5079347;28;20079;-82
2023/05/27 08:21:15;;;;;;;16.08;5.85;;;;;;;17.58;80.18;100292.28;5086286;28;20043;-81
2023/05/27 08:23:59;;;;;;;14.95;5.20;;;;;;;17.65;78.40;100292.25;5089167;28;20510;-82
2023/05/27 08:26:42;;;;;;;10.13;5.20;;;;;;;17.85;78.81;100292.19;5086233;28;20047;-82
2023/05/27 08:29:27;;;;;;;16.58;5.88;;;;;;;17.90;78.24;100308.28;5086960;28;20102;-83
2023/05/27 08:32:12;;;;;;;16.40;6.38;;;;;;;17.82;78.24;100304.03;5083073;28;20097;-83
2023/05/27 08:34:57;;;;;;;16.17;5.97;;;;;;;17.98;78.05;100292.13;5091689;28;20131;-81
2023/05/27 08:37:41;;;;;;;13.57;5.50;;;;;;;18.08;78.24;100299.66;5096180;28;20066;-80
2023/05/27 08:40:25;;;;;;;16.50;5.68;;;;;;;18.00;77.76;100294.56;5091082;28;20030;-82
2023/05/27 08:43:09;;;;;;;13.93;5.53;;;;;;;18.13;77.10;100283.91;5069566;28;20055;-81
2023/05/27 08:45:54;;;;;;;10.65;5.63;;;;;;;18.12;78.04;100289.41;5083157;28;20101;-80
2023/05/27 08:48:38;;;;;;;16.33;5.43;;;;;;;18.19;77.11;100287.53;5078594;28;20055;-80
2023/05/27 08:51:23;;;;;;;16.08;5.43;;;;;;;18.30;77.76;100283.38;5083537;28;20074;-82
2023/05/27 08:54:09;;;;;;;18.88;6.25;;;;;;;18.42;76.77;100296.78;5079718;28;20094;-82
2023/05/27 08:56:57;;;;;;;14.07;5.85;;;;;;;18.54;76.59;100294.25;5082070;28;20038;-82
2023/05/27 08:59:41;;;;;;;16.67;6.57;;;;;;;18.61;75.28;100287.03;5079340;28;20506;-81
2023/05/27 09:02:27;;;;;;;14.30;5.72;;;;;;;18.64;75.49;100285.78;5083415;28;20467;-82
2023/05/27 09:05:12;;;;;;;18.17;5.72;;;;;;;18.61;75.80;100279.03;5079445;28;20043;-81
2023/05/27 09:07:55;;;;;;;14.20;5.72;;;;;;;18.53;74.29;100276.66;5084974;28;20047;-82
2023/05/27 09:10:42;;;;;;;16.17;5.82;;;;;;;18.69;75.39;100278.78;5080071;28;20385;-82
2023/05/27 09:13:30;;;;;;;15.77;5.35;;;;;;;18.70;74.55;100271.59;5078358;28;20057;-82
2023/05/27 09:16:14;;;;;;;12.52;6.53;;;;;;;18.82;74.55;100253.09;5078310;28;20047;-82
2023/05/27 09:18:58;;;;;;;13.77;5.90;;;;;;;18.98;75.92;100262.38;5085445;28;20705;-84
2023/05/27 09:21:42;;;;;;;15.77;6.00;;;;;;;19.04;75.28;100258.84;5081649;28;20281;-81
2023/05/27 09:24:27;;;;;;;17.88;5.82;;;;;;;19.10;75.43;100257.94;5078200;28;20073;-82
2023/05/27 09:27:11;;;;;;;15.80;5.95;;;;;;;19.19;74.99;100247.81;5074662;28;20498;-77
2023/05/27 09:29:57;;;;;;;12.45;5.28;;;;;;;19.13;72.56;100254.84;5073891;28;20036;-80
2023/05/27 09:32:42;;;;;;;13.05;5.95;;;;;;;19.11;71.38;100235.63;5076773;28;20043;-80
2023/05/27 09:35:26;;;;;;;13.10;5.70;;;;;;;19.20;73.76;100244.13;5076221;28;20193;-80
2023/05/27 09:38:10;;;;;;;13.35;5.45;;;;;;;19.44;73.68;100246.91;5071053;28;20043;-78
2023/05/27 09:40:54;;;;;;;22.25;6.43;;;;;;;19.40;72.86;100243.09;5077463;28;20046;-78
2023/05/27 09:43:38;;;;;;;11.50;5.80;;;;;;;19.51;73.31;100244.19;5078227;28;20246;-78
2023/05/27 09:46:23;;;;;;;17.02;6.28;;;;;;;19.42;71.97;100241.00;5076851;28;20074;-76
2023/05/27 09:49:09;;;;;;;10.85;5.47;;;;;;;19.52;73.06;100235.97;5080979;28;20080;-76
2023/05/27 09:51:57;;;;;;;15.90;5.68;;;;;;;19.62;72.30;100237.28;5074134;28;20500;-76
2023/05/27 09:54:43;;;;;;;11.57;5.15;;;;;;;19.54;71.13;100230.41;5080053;28;20067;-79
2023/05/27 09:57:29;;;;;;;10.65;5.70;;;;;;;19.69;70.41;100235.38;5075197;28;20555;-79
2023/05/27 10:00:17;;;;;;;8.95;5.20;;;;;;;19.62;68.34;100232.78;5069324;28;20081;-79
2023/05/27 10:03:02;;;;;;;11.30;5.20;;;;;;;19.65;68.99;100234.16;5067950;28;20155;-80
2023/05/27 10:05:48;;;;;;;17.30;6.60;;;;;;;19.72;69.25;100226.91;5075568;28;20101;-79
2023/05/27 10:08:33;;;;;;;13.27;5.40;;;;;;;19.71;71.23;100241.28;5085867;28;20122;-79
2023/05/27 10:11:17;;;;;;;13.98;5.22;;;;;;;19.77;66.07;100224.38;5085144;28;20089;-79
2023/05/27 10:14:02;;;;;;;14.15;6.20;;;;;;;19.92;66.96;100231.19;5085545;28;20101;-80
2023/05/27 10:16:56;;;;;;;12.40;5.32;;;;;;;19.95;68.92;100223.56;5080449;28;20089;-79
2023/05/27 10:19:55;;;;;;;17.92;6.78;;;;;;;20.00;71.14;100224.72;5074730;28;20050;-80
2023/05/27 10:22:43;;;;;;;8.52;4.97;;;;;;;20.16;70.78;100224.06;5081950;28;20040;-80
2023/05/27 10:25:46;;;;;;;15.90;5.10;;;;;;;20.27;68.98;100230.44;5067080;28;20063;-81
2023/05/27 10:28:36;;;;;;;10.90;5.18;;;;;;;20.29;67.38;100212.38;5085031;28;20062;-81
2023/05/27 10:31:20;;;;;;;13.05;5.85;;;;;;;20.26;67.32;100218.97;5074118;28;20040;-78
2023/05/27 10:34:08;;;;;;;15.88;5.55;;;;;;;20.37;68.78;100222.69;5082324;28;20432;-79
2023/05/27 10:37:02;;;;;;;14.13;5.07;;;;;;;20.41;69.11;100215.84;5079485;28;20094;-79
2023/05/27 10:39:57;;;;;;;9.82;5.55;;;;;;;20.56;67.10;100201.25;5076290;28;20047;-79
2023/05/27 10:42:41;;;;;;;17.15;6.95;;;;;;;20.47;67.78;100197.31;5085046;28;20328;-80
2023/05/27 10:45:33;;;;;;;11.55;5.53;;;;;;;20.56;66.77;100195.91;5083883;28;20110;-78
2023/05/27 10:48:28;;;;;;;13.90;5.22;;;;;;;20.64;66.85;100176.06;5087691;28;20093;-79
2023/05/27 10:51:12;;;;;;;13.65;5.50;;;;;;;20.76;67.64;100178.72;5074446;28;20405;-79
2023/05/27 10:53:57;;;;;;;11.13;5.72;;;;;;;20.79;65.62;100179.09;5073254;28;20047;-80
2023/05/27 10:56:51;;;;;;;18.85;6.00;;;;;;;20.74;66.35;100167.47;5076865;28;20170;-80
2023/05/27 10:59:41;;;;;;;13.63;5.68;;;;;;;20.98;66.14;100168.28;5078783;28;20077;-80
2023/05/27 11:02:34;;;;;;;13.25;5.80;;;;;;;20.99;66.76;100164.56;5074941;28;20075;-80
2023/05/27 11:05:20;;;;;;;15.70;6.37;;;;;;;21.10;63.92;100162.91;5090002;28;20085;-79
2023/05/27 11:08:08;;;;;;;12.20;5.07;;;;;;;21.17;66.20;100157.44;5087578;28;20113;-79
2023/05/27 11:11:00;;;;;;;11.57;5.40;;;;;;;21.11;66.93;100156.53;5082806;28;20513;-79
2023/05/27 11:13:46;;;;;;;12.48;5.82;;;;;;;21.21;64.29;100147.91;5083253;28;20063;-79
2023/05/27 11:16:30;;;;;;;9.05;5.32;;;;;;;21.32;67.11;100155.06;5087049;28;20385;-79
2023/05/27 11:19:14;;;;;;;11.93;5.55;;;;;;;21.36;62.41;100161.53;5080358;28;20508;-79
2023/05/27 11:21:58;;;;;;;15.40;6.25;;;;;;;21.24;60.87;100158.09;5086419;28;20067;-79
2023/05/27 11:24:43;;;;;;;10.50;5.90;;;;;;;21.14;62.36;100147.25;5073583;28;20106;-79
2023/05/27 11:27:38;;;;;;;11.00;5.20;;;;;;;21.29;65.37;100150.19;5075816;28;20094;-80
2023/05/27 11:30:24;;;;;;;19.50;5.80;;;;;;;21.41;62.93;100142.13;5082273;28;20069;-80
2023/05/27 11:33:09;;;;;;;11.30;5.20;;;;;;;21.49;62.52;100139.06;5076485;28;20050;-80
2023/05/27 11:36:06;;;;;;;12.55;5.72;;;;;;;21.52;63.96;100133.25;5086499;28;20046;-80
2023/05/27 11:38:53;;;;;;;15.20;6.00;;;;;;;21.66;64.82;100133.78;5079713;28;20035;-80
2023/05/27 11:41:48;;;;;;;15.73;5.80;;;;;;;21.50;60.28;100131.84;5076873;28;20055;-80
2023/05/27 11:44:32;;;;;;;14.35;5.30;;;;;;;21.47;59.94;100129.66;5076976;28;20082;-79
2023/05/27 11:47:17;;;;;;;14.10;5.18;;;;;;;21.40;59.68;100127.13;5082220;28;20139;-79
2023/05/27 11:50:02;;;;;;;14.18;6.10;;;;;;;21.48;58.85;100117.94;5078691;28;20035;-80
2023/05/27 11:52:58;;;;;;;11.73;5.28;;;;;;;21.39;59.12;100118.34;5083531;28;20051;-79
2023/05/27 11:55:45;;;;;;;12.73;5.03;;;;;;;21.29;58.41;100118.13;5071401;28;20052;-79
2023/05/27 11:58:29;;;;;;;12.70;4.82;;;;;;;21.51;58.66;100115.59;5078723;28;20101;-78
2023/05/27 12:01:13;;;;;;;15.27;6.15;;;;;;;21.62;60.68;100111.25;5079686;28;20089;-78
2023/05/27 12:03:57;;;;;;;11.23;5.00;;;;;;;21.33;59.34;100097.13;5077067;28;20039;-78
2023/05/27 12:06:44;;;;;;;11.77;5.28;;;;;;;21.54;58.56;100087.59;5078620;28;20059;-79
2023/05/27 12:09:28;;;;;;;10.85;5.45;;;;;;;21.85;63.39;100103.34;5079780;28;20142;-78
2023/05/27 12:12:12;;;;;;;12.05;5.60;;;;;;;22.09;61.53;100094.09;5077214;28;20492;-78
2023/05/27 12:14:56;;;;;;;9.27;5.22;;;;;;;22.31;62.00;100085.28;5067811;28;20449;-77
2023/05/27 12:17:40;;;;;;;11.80;5.38;;;;;;;22.40;61.81;100083.81;5092401;28;20397;-79
2023/05/27 12:20:27;;;;;;;13.82;5.78;;;;;;;22.51;62.13;100079.44;5074124;28;20101;-78
2023/05/27 12:23:11;;;;;;;12.18;5.30;;;;;;;22.78;61.91;100083.22;5074581;28;20047;-79
2023/05/27 12:25:55;;;;;;;15.75;5.80;;;;;;;22.77;57.52;100081.59;5070744;28;20097;-78
2023/05/27 12:28:41;;;;;;;10.90;5.53;;;;;;;22.44;59.17;100075.31;5071957;28;20079;-77
2023/05/27 12:31:25;;;;;;;13.93;5.38;;;;;;;22.76;60.86;100069.28;5074201;28;20051;-78
2023/05/27 12:34:09;;;;;;;11.50;5.47;;;;;;;23.03;60.99;100065.84;5072256;28;20047;-78
2023/05/27 12:36:53;;;;;;;10.45;5.30;;;;;;;23.30;58.99;100062.34;5073684;28;20039;-78